Terminal Aerodrome Forecast
Issued by NWS

Home | Current Version | Previous Version | Text Only | Print | Product List | Glossary On
Versions: 1 2 3 4 5 6 7 8 9 10 11 12 13 14 15 16 17 18 19 20 21
000
FTUS41 KBTV 252320
TAFRUT
TAF
KRUT 252320Z 2600/2624 19006KT P6SM -SHRA OVC035
     FM260200 23006KT P6SM OVC035
     FM261200 29009G18KT P6SM VCSH OVC035
      AMD LTD TO CLD VIS AND WIND=

USA.gov is the U.S. government's official web portal to all federal, state and local government web resources and services.